Time;durP1;ratioP1;P1;durP2;ratioP2;P2;SDS_P1;SDS_P2;PMS_P1;PMS_P2;Temp;Humidity;BMP_temperature;BMP_pressure;BME280_temperature;BME280_humidity;BME280_pressure;Samples;Min_cycle;Max_cycle;Signal;HPM_P1;HPM_P2
2022/04/06 00:01:45;;;;;;;9.43;3.17;;;;;;;;;;5072538;28;20081;-69
2022/04/06 00:04:11;;;;;;;8.23;3.30;;;;;;;;;;5075777;28;20032;-69
2022/04/06 00:06:37;;;;;;;7.88;2.45;;;;;;;;;;5074511;28;20513;-69
2022/04/06 00:09:03;;;;;;;7.20;3.25;;;;;;;;;;5074950;28;20457;-69
2022/04/06 00:11:30;;;;;;;7.13;2.70;;;;;;;;;;5072923;28;20082;-69
2022/04/06 00:13:56;;;;;;;5.95;2.35;;;;;;;;;;5075626;28;20101;-69
2022/04/06 00:16:22;;;;;;;7.93;2.45;;;;;;;;;;5075599;28;20028;-69
2022/04/06 00:18:48;;;;;;;6.53;2.70;;;;;;;;;;5074407;28;20794;-69
2022/04/06 00:21:14;;;;;;;7.63;2.35;;;;;;;;;;5076564;28;20032;-69
2022/04/06 00:23:40;;;;;;;5.45;2.50;;;;;;;;;;5074038;28;20692;-69
2022/04/06 00:26:06;;;;;;;8.35;2.58;;;;;;;;;;5079633;28;20051;-69
2022/04/06 00:28:33;;;;;;;7.10;2.65;;;;;;;;;;5072105;28;20052;-69
2022/04/06 00:30:59;;;;;;;6.82;2.67;;;;;;;;;;5080219;28;20878;-69
2022/04/06 00:33:25;;;;;;;8.45;2.78;;;;;;;;;;5083147;28;20035;-69
2022/04/06 00:35:51;;;;;;;7.65;2.78;;;;;;;;;;5077847;28;20039;-70
2022/04/06 00:38:17;;;;;;;8.35;2.55;;;;;;;;;;5076766;28;20039;-70
2022/04/06 00:40:43;;;;;;;5.43;2.70;;;;;;;;;;5076511;28;20082;-70
2022/04/06 00:43:13;;;;;;;8.07;3.10;;;;;;;;;;5078777;28;20047;-70
2022/04/06 00:45:39;;;;;;;5.95;2.63;;;;;;;;;;5078924;28;20036;-70
2022/04/06 00:48:06;;;;;;;8.43;2.72;;;;;;;;;;5079873;28;20381;-70
2022/04/06 00:50:32;;;;;;;5.88;2.47;;;;;;;;;;5079065;28;20028;-69
2022/04/06 00:52:58;;;;;;;4.75;2.13;;;;;;;;;;5081399;28;20114;-69
2022/04/06 00:55:29;;;;;;;5.47;2.10;;;;;;;;;;5077405;28;20729;-69
2022/04/06 00:57:55;;;;;;;6.30;2.20;;;;;;;;;;5079284;28;20669;-69
2022/04/06 01:00:21;;;;;;;6.18;1.80;;;;;;;;;;5081346;28;20027;-70
2022/04/06 01:02:48;;;;;;;5.10;2.05;;;;;;;;;;5076804;28;20038;-70
2022/04/06 01:05:14;;;;;;;6.18;2.35;;;;;;;;;;5077586;28;20051;-70
2022/04/06 01:07:41;;;;;;;4.63;2.00;;;;;;;;;;5076938;28;20028;-69
2022/04/06 01:10:07;;;;;;;5.60;2.13;;;;;;;;;;5076830;28;20063;-69
2022/04/06 01:12:38;;;;;;;6.60;1.95;;;;;;;;;;5080241;28;20078;-69
2022/04/06 01:15:04;;;;;;;5.30;2.13;;;;;;;;;;5073806;28;20043;-69
2022/04/06 01:17:35;;;;;;;7.78;2.60;;;;;;;;;;5076392;28;20035;-69
2022/04/06 01:20:01;;;;;;;6.53;1.73;;;;;;;;;;5077469;28;20037;-69
2022/04/06 01:22:28;;;;;;;4.28;1.60;;;;;;;;;;5080353;28;20042;-69
2022/04/06 01:24:54;;;;;;;5.88;2.50;;;;;;;;;;5079977;28;20572;-69
2022/04/06 01:27:20;;;;;;;5.45;1.83;;;;;;;;;;5078787;28;20027;-70
2022/04/06 01:29:46;;;;;;;4.72;1.92;;;;;;;;;;5075343;28;20033;-70
2022/04/06 01:32:14;;;;;;;4.35;1.67;;;;;;;;;;5079368;28;20039;-69
2022/04/06 01:34:40;;;;;;;7.20;1.67;;;;;;;;;;5077189;28;20082;-69
2022/04/06 01:37:07;;;;;;;7.38;1.65;;;;;;;;;;5077316;28;20033;-69
2022/04/06 01:39:34;;;;;;;4.90;2.00;;;;;;;;;;5080669;28;20060;-70
2022/04/06 01:42:00;;;;;;;5.95;2.10;;;;;;;;;;5077448;28;20037;-69
2022/04/06 01:44:26;;;;;;;6.30;2.17;;;;;;;;;;5078111;28;20086;-69
2022/04/06 01:46:52;;;;;;;5.18;2.10;;;;;;;;;;5078205;28;20024;-69
2022/04/06 01:52:11;;;;;;;4.25;2.05;;;;;;;;;;5078877;28;20137;-69
2022/04/06 01:54:37;;;;;;;6.75;2.33;;;;;;;;;;5079568;28;20125;-69
2022/04/06 01:57:04;;;;;;;5.00;1.75;;;;;;;;;;5076558;28;20480;-69
2022/04/06 01:59:30;;;;;;;4.65;2.10;;;;;;;;;;5081405;28;20032;-70
2022/04/06 02:01:56;;;;;;;4.40;1.83;;;;;;;;;;5084046;28;20447;-70
2022/04/06 02:04:22;;;;;;;5.85;2.20;;;;;;;;;;5083842;28;20039;-69
2022/04/06 02:06:48;;;;;;;6.97;2.20;;;;;;;;;;5084030;28;20032;-69
2022/04/06 02:09:14;;;;;;;6.22;2.38;;;;;;;;;;5075108;28;20066;-69
2022/04/06 02:11:42;;;;;;;12.90;2.35;;;;;;;;;;5068090;28;20060;-69
2022/04/06 02:14:08;;;;;;;6.80;2.38;;;;;;;;;;5079379;28;20526;-69
2022/04/06 02:16:35;;;;;;;5.70;1.65;;;;;;;;;;5079801;28;20059;-69
2022/04/06 02:19:01;;;;;;;6.65;1.85;;;;;;;;;;5077039;28;20033;-69
2022/04/06 02:21:27;;;;;;;6.57;1.67;;;;;;;;;;5080666;28;20526;-69
2022/04/06 02:23:53;;;;;;;7.88;1.83;;;;;;;;;;5082012;28;20044;-70
2022/04/06 02:26:19;;;;;;;3.80;1.63;;;;;;;;;;5078614;28;20032;-69
2022/04/06 02:28:45;;;;;;;5.85;1.85;;;;;;;;;;5077306;28;20077;-69
2022/04/06 02:31:11;;;;;;;6.63;2.03;;;;;;;;;;5070621;28;20560;-69
2022/04/06 02:33:37;;;;;;;5.55;1.70;;;;;;;;;;5082633;28;20130;-69
2022/04/06 02:36:03;;;;;;;6.13;2.17;;;;;;;;;;5084355;28;20073;-69
2022/04/06 02:38:30;;;;;;;7.32;1.80;;;;;;;;;;5079305;28;20036;-69
2022/04/06 02:40:56;;;;;;;5.03;1.90;;;;;;;;;;5077051;28;20048;-69
2022/04/06 02:43:22;;;;;;;6.38;2.33;;;;;;;;;;5074550;28;20028;-69
2022/04/06 02:45:48;;;;;;;5.78;2.03;;;;;;;;;;5076131;28;20075;-69
2022/04/06 02:48:16;;;;;;;4.97;1.95;;;;;;;;;;5073658;28;20039;-69
2022/04/06 02:50:42;;;;;;;5.70;2.08;;;;;;;;;;5077395;28;20047;-69
2022/04/06 02:53:08;;;;;;;7.55;2.00;;;;;;;;;;5075643;28;20097;-69
2022/04/06 02:55:34;;;;;;;8.73;2.60;;;;;;;;;;5079211;28;20123;-70
2022/04/06 02:58:00;;;;;;;9.05;2.80;;;;;;;;;;5080155;28;20736;-69
2022/04/06 03:00:26;;;;;;;7.05;2.88;;;;;;;;;;5084461;28;20086;-69
2022/04/06 03:02:52;;;;;;;8.95;2.80;;;;;;;;;;5083798;28;20033;-69
2022/04/06 03:05:18;;;;;;;6.78;2.63;;;;;;;;;;5078714;28;20024;-69
2022/04/06 03:07:44;;;;;;;7.43;2.58;;;;;;;;;;5085217;28;20036;-69
2022/04/06 03:10:10;;;;;;;8.93;2.55;;;;;;;;;;5084971;28;20032;-69
2022/04/06 03:12:37;;;;;;;9.38;3.35;;;;;;;;;;5085121;28;20537;-69
2022/04/06 03:15:03;;;;;;;12.15;4.97;;;;;;;;;;5072334;28;20064;-69
2022/04/06 03:17:29;;;;;;;10.68;4.50;;;;;;;;;;5077299;28;20032;-70
2022/04/06 03:19:55;;;;;;;12.95;4.35;;;;;;;;;;5078586;28;20047;-69
2022/04/06 03:22:21;;;;;;;11.25;4.63;;;;;;;;;;5077771;28;20110;-69
2022/04/06 03:24:47;;;;;;;10.23;4.05;;;;;;;;;;5070813;28;20463;-69
2022/04/06 03:27:14;;;;;;;10.98;3.80;;;;;;;;;;5077978;28;20035;-69
2022/04/06 03:29:40;;;;;;;9.63;3.45;;;;;;;;;;5077996;28;20023;-69
2022/04/06 03:32:09;;;;;;;10.10;3.35;;;;;;;;;;5078983;28;20036;-69
2022/04/06 03:34:36;;;;;;;8.02;3.80;;;;;;;;;;5075974;28;20173;-69
2022/04/06 03:37:02;;;;;;;6.80;3.10;;;;;;;;;;5076847;28;20130;-69
2022/04/06 03:39:28;;;;;;;7.95;2.70;;;;;;;;;;5076296;28;20032;-69
2022/04/06 03:41:54;;;;;;;5.95;2.72;;;;;;;;;;5075218;28;20082;-69
2022/04/06 03:44:20;;;;;;;11.48;5.65;;;;;;;;;;5074334;28;20646;-69
2022/04/06 03:46:46;;;;;;;14.23;6.07;;;;;;;;;;5060621;28;20029;-69
2022/04/06 03:49:12;;;;;;;10.23;5.28;;;;;;;;;;5076840;28;20024;-69
2022/04/06 03:51:38;;;;;;;13.32;5.00;;;;;;;;;;5076698;28;20060;-69
2022/04/06 03:54:04;;;;;;;10.02;4.07;;;;;;;;;;5065315;28;20140;-69
2022/04/06 03:56:31;;;;;;;10.45;4.30;;;;;;;;;;5074161;28;20086;-69
2022/04/06 03:58:57;;;;;;;7.85;3.15;;;;;;;;;;5079101;28;20040;-69
2022/04/06 04:01:23;;;;;;;9.98;3.47;;;;;;;;;;5064476;28;20386;-69
2022/04/06 04:03:49;;;;;;;9.07;3.30;;;;;;;;;;5079725;28;20032;-69
2022/04/06 04:06:15;;;;;;;9.52;4.25;;;;;;;;;;5079823;28;20111;-69
2022/04/06 04:08:41;;;;;;;9.68;3.13;;;;;;;;;;5077011;28;20028;-69
2022/04/06 04:11:08;;;;;;;9.40;3.40;;;;;;;;;;5080890;28;20036;-70
2022/04/06 04:13:34;;;;;;;9.32;3.08;;;;;;;;;;5079005;28;20028;-69
2022/04/06 04:16:01;;;;;;;7.47;2.97;;;;;;;;;;5080202;28;20517;-69
2022/04/06 04:18:27;;;;;;;7.82;2.33;;;;;;;;;;5075433;28;20111;-69
2022/04/06 04:21:32;;;;;;;7.47;2.90;;;;;;;;;;5079838;28;20119;-69
2022/04/06 04:23:39;;;;;;;7.38;3.13;;;;;;;;;;5078516;28;20160;-69
2022/04/06 04:26:05;;;;;;;9.57;3.35;;;;;;;;;;5080369;28;20253;-69
2022/04/06 04:28:31;;;;;;;11.30;4.13;;;;;;;;;;5081735;28;20778;-69
2022/04/06 04:30:57;;;;;;;11.77;4.70;;;;;;;;;;5083830;28;20036;-69
2022/04/06 04:33:23;;;;;;;11.55;4.68;;;;;;;;;;5083909;28;20492;-69
2022/04/06 04:35:49;;;;;;;10.98;3.53;;;;;;;;;;5080546;28;20036;-69
2022/04/06 04:38:15;;;;;;;12.05;4.35;;;;;;;;;;5076065;28;20142;-69
2022/04/06 04:40:41;;;;;;;13.80;3.83;;;;;;;;;;5083051;28;20043;-69
2022/04/06 04:43:07;;;;;;;10.40;3.63;;;;;;;;;;5078225;28;20347;-69
2022/04/06 04:45:33;;;;;;;8.95;3.45;;;;;;;;;;5077018;28;20119;-69
2022/04/06 04:47:59;;;;;;;9.25;3.42;;;;;;;;;;5077988;28;20374;-69
2022/04/06 04:50:25;;;;;;;9.25;3.33;;;;;;;;;;5080450;28;20077;-69
2022/04/06 04:52:51;;;;;;;8.65;3.75;;;;;;;;;;5079760;28;20024;-69
2022/04/06 04:55:18;;;;;;;9.65;3.42;;;;;;;;;;5079210;28;20147;-69
2022/04/06 04:57:44;;;;;;;8.60;3.13;;;;;;;;;;5075685;28;20039;-69
2022/04/06 05:00:11;;;;;;;10.80;2.95;;;;;;;;;;5080066;28;20036;-69
2022/04/06 05:02:37;;;;;;;9.30;3.25;;;;;;;;;;5080285;28;20109;-69
2022/04/06 05:05:04;;;;;;;12.20;3.72;;;;;;;;;;5076505;28;20466;-69
2022/04/06 05:07:31;;;;;;;9.30;3.38;;;;;;;;;;5086564;28;20277;-69
2022/04/06 05:09:57;;;;;;;9.27;3.75;;;;;;;;;;5077748;28;20035;-69
2022/04/06 05:12:26;;;;;;;10.43;4.03;;;;;;;;;;5075926;28;20024;-69
2022/04/06 05:14:52;;;;;;;12.40;5.60;;;;;;;;;;5077260;28;20031;-69
2022/04/06 05:17:18;;;;;;;11.10;4.63;;;;;;;;;;5083309;28;20397;-69
2022/04/06 05:19:44;;;;;;;17.02;6.55;;;;;;;;;;5078751;28;20044;-69
2022/04/06 05:22:10;;;;;;;24.67;10.20;;;;;;;;;;5078602;28;20438;-69
2022/04/06 05:24:36;;;;;;;22.75;10.93;;;;;;;;;;5082611;28;20051;-69
2022/04/06 05:27:03;;;;;;;24.30;10.05;;;;;;;;;;5082443;28;20437;-69
2022/04/06 05:29:29;;;;;;;25.15;10.40;;;;;;;;;;5078826;28;20035;-70
2022/04/06 05:31:55;;;;;;;23.48;8.88;;;;;;;;;;5078924;28;20090;-69
2022/04/06 05:34:21;;;;;;;14.75;7.07;;;;;;;;;;5079359;28;20027;-69
2022/04/06 05:36:47;;;;;;;11.43;5.20;;;;;;;;;;5077878;28;20779;-69
2022/04/06 05:39:13;;;;;;;16.80;5.68;;;;;;;;;;5080941;28;20414;-69
2022/04/06 05:41:39;;;;;;;11.00;4.80;;;;;;;;;;5079003;28;20040;-69
2022/04/06 05:44:05;;;;;;;12.60;6.00;;;;;;;;;;5082181;28;20078;-69
2022/04/06 05:46:31;;;;;;;10.68;4.45;;;;;;;;;;5085889;28;20071;-69
2022/04/06 05:48:57;;;;;;;12.15;5.55;;;;;;;;;;5081219;28;20059;-69
2022/04/06 05:51:24;;;;;;;17.85;5.53;;;;;;;;;;5074857;28;20060;-69
2022/04/06 05:53:50;;;;;;;13.95;4.72;;;;;;;;;;5075658;28;20060;-69
2022/04/06 05:56:16;;;;;;;16.35;5.25;;;;;;;;;;5077864;28;20067;-69
2022/04/06 05:58:43;;;;;;;19.60;6.07;;;;;;;;;;5076195;28;20028;-69
2022/04/06 06:01:09;;;;;;;17.20;5.72;;;;;;;;;;5078358;28;20031;-69
2022/04/06 06:03:35;;;;;;;15.05;4.78;;;;;;;;;;5076560;28;20082;-69
2022/04/06 06:06:01;;;;;;;15.05;5.05;;;;;;;;;;5081532;28;20608;-69
2022/04/06 06:08:27;;;;;;;14.50;5.13;;;;;;;;;;5067825;28;20036;-69
2022/04/06 06:10:53;;;;;;;9.68;4.50;;;;;;;;;;5076734;28;20831;-70
2022/04/06 06:13:19;;;;;;;25.80;7.70;;;;;;;;;;5072354;28;20069;-69
2022/04/06 06:15:45;;;;;;;23.17;8.82;;;;;;;;;;5067474;28;20631;-69
2022/04/06 06:18:13;;;;;;;23.83;10.13;;;;;;;;;;5086122;28;20028;-69
2022/04/06 06:20:39;;;;;;;34.95;12.43;;;;;;;;;;5083845;28;20576;-69
2022/04/06 06:23:05;;;;;;;32.00;10.20;;;;;;;;;;5080262;28;20048;-69
2022/04/06 06:25:31;;;;;;;31.40;9.43;;;;;;;;;;5086651;28;20440;-69
2022/04/06 06:27:57;;;;;;;21.02;7.80;;;;;;;;;;5082785;28;20028;-69
2022/04/06 06:30:26;;;;;;;27.42;6.68;;;;;;;;;;5087571;28;20036;-69
2022/04/06 06:32:52;;;;;;;16.45;6.15;;;;;;;;;;5083561;28;20980;-69
2022/04/06 06:35:20;;;;;;;20.35;6.97;;;;;;;;;;5086746;28;20127;-69
2022/04/06 06:37:50;;;;;;;18.27;7.00;;;;;;;;;;5083110;28;20021;-70
2022/04/06 06:40:17;;;;;;;16.20;5.97;;;;;;;;;;5084266;28;20092;-69
2022/04/06 06:42:43;;;;;;;15.50;4.55;;;;;;;;;;5082803;28;20043;-69
2022/04/06 06:45:09;;;;;;;9.45;3.78;;;;;;;;;;5066523;28;20040;-69
2022/04/06 06:47:35;;;;;;;10.20;4.55;;;;;;;;;;5072138;28;20129;-69
2022/04/06 06:50:02;;;;;;;12.23;3.97;;;;;;;;;;5075471;28;20036;-69
2022/04/06 06:52:28;;;;;;;10.73;4.55;;;;;;;;;;5083813;28;20470;-69
2022/04/06 06:54:54;;;;;;;10.98;3.95;;;;;;;;;;5087647;28;20044;-70
2022/04/06 06:57:20;;;;;;;11.55;3.72;;;;;;;;;;5082990;28;20032;-70
2022/04/06 06:59:46;;;;;;;13.68;4.00;;;;;;;;;;5082696;28;20044;-69
2022/04/06 07:02:12;;;;;;;12.40;5.05;;;;;;;;;;5084066;28;20035;-69
2022/04/06 07:04:38;;;;;;;11.55;6.13;;;;;;;;;;5081061;28;20031;-69
2022/04/06 07:07:04;;;;;;;22.50;7.20;;;;;;;;;;5084897;28;20584;-69
2022/04/06 07:09:30;;;;;;;18.08;5.47;;;;;;;;;;5087157;28;20500;-69
2022/04/06 07:11:56;;;;;;;10.77;4.95;;;;;;;;;;5080768;28;20066;-70
2022/04/06 07:14:22;;;;;;;10.07;3.92;;;;;;;;;;5082364;28;20377;-70
2022/04/06 07:16:48;;;;;;;12.38;5.80;;;;;;;;;;5080161;28;20500;-70
2022/04/06 07:19:15;;;;;;;15.43;6.07;;;;;;;;;;5081960;28;20049;-69
2022/04/06 07:21:41;;;;;;;9.50;5.05;;;;;;;;;;5085622;28;20028;-69
2022/04/06 07:24:07;;;;;;;7.88;4.07;;;;;;;;;;5084432;28;20296;-70
2022/04/06 07:26:33;;;;;;;9.27;4.13;;;;;;;;;;5082243;28;20839;-69
2022/04/06 07:28:59;;;;;;;13.32;4.70;;;;;;;;;;5085183;28;20068;-69
2022/04/06 07:31:25;;;;;;;9.13;4.18;;;;;;;;;;5084163;28;20373;-69
2022/04/06 07:33:51;;;;;;;8.98;3.72;;;;;;;;;;5085809;28;20036;-69
2022/04/06 07:36:18;;;;;;;12.02;3.97;;;;;;;;;;5079125;28;20047;-69
2022/04/06 07:38:44;;;;;;;10.88;3.88;;;;;;;;;;5070572;28;20059;-69
2022/04/06 07:41:10;;;;;;;10.23;3.67;;;;;;;;;;5082244;28;20416;-70
2022/04/06 07:43:36;;;;;;;13.13;3.63;;;;;;;;;;5080781;28;20119;-69
2022/04/06 07:46:02;;;;;;;10.05;3.83;;;;;;;;;;5080489;28;20091;-70
2022/04/06 07:48:30;;;;;;;12.30;3.90;;;;;;;;;;5079811;28;20024;-69
2022/04/06 07:50:56;;;;;;;11.95;3.03;;;;;;;;;;5083445;28;20423;-69
2022/04/06 07:53:22;;;;;;;11.77;2.65;;;;;;;;;;5082617;28;20515;-70
2022/04/06 07:55:49;;;;;;;8.98;3.08;;;;;;;;;;5081858;28;20040;-69
2022/04/06 07:58:15;;;;;;;12.07;2.95;;;;;;;;;;5084842;28;20111;-69
2022/04/06 08:00:41;;;;;;;8.75;3.42;;;;;;;;;;5083311;28;20043;-70
2022/04/06 08:03:07;;;;;;;8.90;3.40;;;;;;;;;;5082078;28;20118;-69
2022/04/06 08:05:35;;;;;;;8.98;3.85;;;;;;;;;;5081123;28;20085;-70
2022/04/06 08:08:01;;;;;;;10.77;4.68;;;;;;;;;;5086556;28;20055;-69
2022/04/06 08:10:30;;;;;;;13.95;2.90;;;;;;;;;;5078433;28;20071;-69
2022/04/06 08:12:56;;;;;;;7.72;3.72;;;;;;;;;;5085714;28;20454;-70
2022/04/06 08:15:22;;;;;;;8.55;2.97;;;;;;;;;;5084275;28;20059;-69
2022/04/06 08:17:49;;;;;;;7.50;3.33;;;;;;;;;;5083764;28;20063;-69
2022/04/06 08:20:16;;;;;;;7.80;3.53;;;;;;;;;;5079980;28;20042;-69
2022/04/06 08:22:44;;;;;;;5.45;2.70;;;;;;;;;;5081315;28;20078;-69
2022/04/06 08:25:10;;;;;;;9.75;3.50;;;;;;;;;;5082647;28;20231;-69
2022/04/06 08:27:39;;;;;;;6.50;2.33;;;;;;;;;;5078768;28;20028;-69
2022/04/06 08:30:06;;;;;;;5.97;2.08;;;;;;;;;;5082458;28;20100;-70
2022/04/06 08:32:32;;;;;;;7.03;2.33;;;;;;;;;;5080220;28;20032;-69
2022/04/06 08:34:58;;;;;;;9.13;2.67;;;;;;;;;;5080439;28;20039;-69
2022/04/06 08:37:25;;;;;;;7.03;2.35;;;;;;;;;;5085000;28;20036;-70
2022/04/06 08:39:51;;;;;;;3.70;1.90;;;;;;;;;;5079309;28;20112;-70
2022/04/06 08:42:17;;;;;;;6.22;1.73;;;;;;;;;;5081910;28;20024;-69
2022/04/06 08:44:45;;;;;;;9.18;2.17;;;;;;;;;;5075510;28;20115;-69
2022/04/06 08:47:11;;;;;;;5.78;1.80;;;;;;;;;;5080830;28;20028;-69
2022/04/06 08:49:37;;;;;;;5.47;1.70;;;;;;;;;;5085496;28;20044;-69
2022/04/06 08:52:04;;;;;;;5.75;1.95;;;;;;;;;;5083081;28;20029;-69
2022/04/06 08:54:31;;;;;;;6.53;2.33;;;;;;;;;;5084901;28;20085;-70
2022/04/06 08:56:57;;;;;;;5.93;3.03;;;;;;;;;;5089279;28;20066;-69
2022/04/06 08:59:23;;;;;;;6.30;2.25;;;;;;;;;;5086384;28;20028;-69
2022/04/06 09:01:49;;;;;;;7.03;2.22;;;;;;;;;;5084021;28;20625;-69
2022/04/06 09:04:15;;;;;;;5.47;1.70;;;;;;;;;;5088128;28;20480;-69
2022/04/06 09:06:42;;;;;;;7.53;2.08;;;;;;;;;;5084490;28;20048;-69
2022/04/06 09:09:09;;;;;;;9.02;2.72;;;;;;;;;;5083013;28;20380;-69
2022/04/06 09:11:44;;;;;;;4.82;2.10;;;;;;;;;;5084817;28;20048;-70
2022/04/06 09:14:11;;;;;;;8.65;2.03;;;;;;;;;;5085546;28;20119;-69
2022/04/06 09:16:37;;;;;;;5.30;2.13;;;;;;;;;;5084196;28;20069;-69
2022/04/06 09:19:09;;;;;;;9.15;2.40;;;;;;;;;;5082308;28;20037;-69
2022/04/06 09:21:39;;;;;;;5.78;1.85;;;;;;;;;;5084036;28;20036;-70
2022/04/06 09:24:05;;;;;;;3.30;1.60;;;;;;;;;;5086753;28;20104;-69
2022/04/06 09:26:32;;;;;;;5.22;1.85;;;;;;;;;;5087413;28;20044;-69
2022/04/06 09:28:58;;;;;;;5.90;1.95;;;;;;;;;;5088396;28;20099;-70
2022/04/06 09:31:24;;;;;;;6.55;2.28;;;;;;;;;;5079759;28;20031;-70
2022/04/06 09:34:00;;;;;;;3.92;1.70;;;;;;;;;;5083897;28;20043;-69
2022/04/06 09:36:30;;;;;;;6.63;2.10;;;;;;;;;;5090034;28;20032;-70
2022/04/06 09:38:56;;;;;;;6.88;1.63;;;;;;;;;;5084277;28;20220;-70
2022/04/06 09:41:22;;;;;;;4.70;1.50;;;;;;;;;;5083305;28;20147;-69
2022/04/06 09:43:50;;;;;;;5.80;1.90;;;;;;;;;;5086145;28;20035;-70
2022/04/06 09:49:01;;;;;;;6.65;1.60;;;;;;;;;;5080036;28;20066;-69
2022/04/06 09:51:27;;;;;;;6.97;1.60;;;;;;;;;;5085229;28;20035;-69
2022/04/06 09:53:54;;;;;;;5.82;1.90;;;;;;;;;;5088305;28;20361;-70
2022/04/06 09:56:20;;;;;;;5.35;1.80;;;;;;;;;;5085436;28;20044;-69
2022/04/06 09:58:47;;;;;;;6.97;1.98;;;;;;;;;;5078914;28;20716;-70
2022/04/06 10:01:14;;;;;;;8.52;2.58;;;;;;;;;;5080657;28;20123;-70
2022/04/06 10:03:41;;;;;;;8.30;1.90;;;;;;;;;;5083727;28;20370;-70
2022/04/06 10:06:07;;;;;;;7.15;2.00;;;;;;;;;;5078948;28;20041;-70
2022/04/06 10:08:34;;;;;;;5.93;1.95;;;;;;;;;;5087583;28;20467;-70
2022/04/06 10:11:00;;;;;;;5.80;2.00;;;;;;;;;;5085879;28;20032;-70
2022/04/06 10:13:27;;;;;;;10.05;2.17;;;;;;;;;;5080091;28;20565;-70
2022/04/06 10:15:54;;;;;;;5.85;1.52;;;;;;;;;;5084201;28;20043;-70
2022/04/06 10:18:20;;;;;;;5.63;1.52;;;;;;;;;;5086837;28;20024;-70
2022/04/06 10:21:06;;;;;;;4.22;1.80;;;;;;;;;;5084699;28;20503;-69
2022/04/06 10:23:48;;;;;;;5.53;1.73;;;;;;;;;;5086394;28;20058;-70
2022/04/06 10:26:46;;;;;;;3.25;1.63;;;;;;;;;;5077227;28;20120;-70
2022/04/06 10:29:13;;;;;;;7.72;2.20;;;;;;;;;;5045289;28;20040;-69
2022/04/06 10:31:39;;;;;;;6.13;1.65;;;;;;;;;;5078822;28;20416;-70
2022/04/06 10:34:28;;;;;;;5.43;2.53;;;;;;;;;;5069457;28;20027;-70
2022/04/06 10:37:11;;;;;;;6.50;2.08;;;;;;;;;;5066230;28;20555;-70
2022/04/06 10:39:57;;;;;;;4.53;2.47;;;;;;;;;;5078156;28;20795;-70
2022/04/06 10:42:34;;;;;;;5.40;2.63;;;;;;;;;;5080537;28;20102;-70
2022/04/06 10:45:00;;;;;;;5.75;2.65;;;;;;;;;;5080226;28;20079;-69
2022/04/06 10:47:29;;;;;;;5.95;3.10;;;;;;;;;;5080207;28;20028;-70
2022/04/06 10:50:13;;;;;;;6.72;3.40;;;;;;;;;;5080604;28;20029;-69
2022/04/06 10:52:40;;;;;;;7.47;3.22;;;;;;;;;;5080987;28;20125;-69
2022/04/06 10:55:09;;;;;;;6.82;2.78;;;;;;;;;;5083966;28;20092;-70
2022/04/06 10:57:54;;;;;;;6.57;2.55;;;;;;;;;;5084505;28;20073;-69
2022/04/06 11:00:20;;;;;;;5.57;2.85;;;;;;;;;;5083243;28;20047;-69
2022/04/06 11:02:49;;;;;;;6.68;2.72;;;;;;;;;;5084477;28;20656;-69
2022/04/06 11:05:35;;;;;;;8.18;2.92;;;;;;;;;;5079665;28;20039;-69
2022/04/06 11:10:45;;;;;;;5.95;2.60;;;;;;;;;;5083248;28;20523;-70
2022/04/06 11:13:13;;;;;;;5.32;2.72;;;;;;;;;;5084399;28;20103;-70
2022/04/06 11:15:41;;;;;;;8.70;2.55;;;;;;;;;;5082257;28;20143;-69
2022/04/06 11:18:26;;;;;;;4.97;2.17;;;;;;;;;;5085380;28;20118;-70
2022/04/06 11:21:02;;;;;;;6.68;2.22;;;;;;;;;;5085402;28;20040;-69
2022/04/06 11:23:29;;;;;;;4.63;2.30;;;;;;;;;;5079765;28;20040;-70
2022/04/06 11:25:57;;;;;;;10.50;2.90;;;;;;;;;;5085077;28;20177;-70
2022/04/06 11:28:28;;;;;;;6.28;2.25;;;;;;;;;;5086731;28;20044;-70
2022/04/06 11:30:54;;;;;;;11.83;2.90;;;;;;;;;;5087162;28;20107;-70
2022/04/06 11:33:20;;;;;;;8.82;2.00;;;;;;;;;;5076665;28;20266;-70
2022/04/06 11:35:46;;;;;;;5.03;1.45;;;;;;;;;;5085467;28;20085;-69
2022/04/06 11:38:12;;;;;;;5.82;1.10;;;;;;;;;;5083259;28;20119;-70
2022/04/06 11:40:39;;;;;;;12.55;2.08;;;;;;;;;;5082312;28;20059;-70
2022/04/06 11:43:05;;;;;;;6.70;1.60;;;;;;;;;;5080450;28;20349;-70
2022/04/06 11:45:32;;;;;;;7.40;1.60;;;;;;;;;;5075746;28;20050;-70
2022/04/06 11:48:02;;;;;;;3.70;1.40;;;;;;;;;;5085547;28;20028;-70
2022/04/06 11:50:29;;;;;;;5.18;1.40;;;;;;;;;;5084627;28;20036;-70
2022/04/06 11:52:55;;;;;;;5.40;1.58;;;;;;;;;;5085144;28;20044;-70
2022/04/06 11:55:21;;;;;;;4.50;1.35;;;;;;;;;;5085982;28;20036;-70
2022/04/06 11:57:48;;;;;;;6.45;1.45;;;;;;;;;;5082227;28;20051;-70
2022/04/06 12:00:15;;;;;;;8.23;2.15;;;;;;;;;;5079565;28;20047;-70
2022/04/06 12:02:47;;;;;;;5.80;1.58;;;;;;;;;;5080442;28;20120;-70
2022/04/06 12:05:13;;;;;;;4.18;1.52;;;;;;;;;;5081047;28;20051;-70
2022/04/06 12:07:39;;;;;;;9.65;1.67;;;;;;;;;;5082978;28;20036;-70
2022/04/06 12:10:06;;;;;;;3.92;1.38;;;;;;;;;;5085095;28;20036;-70
2022/04/06 12:12:36;;;;;;;7.32;1.48;;;;;;;;;;5081429;28;20020;-70
2022/04/06 12:15:02;;;;;;;6.18;1.58;;;;;;;;;;5079121;28;20089;-70
2022/04/06 12:17:28;;;;;;;4.57;1.00;;;;;;;;;;5083007;28;20032;-70
2022/04/06 12:19:54;;;;;;;7.60;1.25;;;;;;;;;;5086368;28;20041;-70
2022/04/06 12:22:25;;;;;;;3.67;1.10;;;;;;;;;;5088826;28;20157;-70
2022/04/06 12:24:52;;;;;;;3.45;1.23;;;;;;;;;;5085873;28;20124;-70
2022/04/06 12:27:28;;;;;;;5.35;1.52;;;;;;;;;;5085871;28;20028;-70
2022/04/06 12:30:23;;;;;;;4.53;1.40;;;;;;;;;;5080496;28;20029;-70
2022/04/06 12:32:52;;;;;;;4.18;1.75;;;;;;;;;;5065779;28;20043;-70
2022/04/06 12:35:21;;;;;;;4.72;1.65;;;;;;;;;;5087474;28;20060;-70
2022/04/06 12:37:47;;;;;;;7.00;1.75;;;;;;;;;;5085566;28;20036;-70
2022/04/06 12:40:23;;;;;;;3.78;1.30;;;;;;;;;;5079251;28;20036;-70
2022/04/06 12:42:53;;;;;;;5.78;1.75;;;;;;;;;;5087688;28;20373;-70
2022/04/06 12:45:19;;;;;;;5.35;1.98;;;;;;;;;;5086273;28;20827;-70
2022/04/06 12:47:48;;;;;;;5.85;1.50;;;;;;;;;;5082296;28;20777;-70
2022/04/06 12:50:21;;;;;;;3.45;1.65;;;;;;;;;;5089000;28;20036;-70
2022/04/06 12:53:04;;;;;;;8.40;1.80;;;;;;;;;;5086594;28;20766;-70
2022/04/06 12:55:30;;;;;;;5.68;1.52;;;;;;;;;;5085058;28;20465;-70
2022/04/06 12:58:13;;;;;;;3.63;1.65;;;;;;;;;;5088106;28;20028;-71
2022/04/06 13:00:39;;;;;;;3.47;1.23;;;;;;;;;;5088174;28;20146;-70
2022/04/06 13:03:05;;;;;;;4.57;1.40;;;;;;;;;;5081984;28;20856;-70
2022/04/06 13:05:32;;;;;;;5.22;1.40;;;;;;;;;;5085437;28;20042;-70
2022/04/06 13:07:58;;;;;;;5.80;1.42;;;;;;;;;;5083488;28;20067;-70
2022/04/06 13:10:28;;;;;;;4.45;1.33;;;;;;;;;;5083092;28;20063;-70
2022/04/06 13:12:55;;;;;;;2.72;0.90;;;;;;;;;;5083852;28;20032;-70
2022/04/06 13:15:21;;;;;;;4.88;1.40;;;;;;;;;;5082860;28;20032;-70
2022/04/06 13:17:48;;;;;;;5.43;1.05;;;;;;;;;;5077655;28;20036;-70
2022/04/06 13:20:15;;;;;;;7.25;1.20;;;;;;;;;;5085756;28;20535;-70
2022/04/06 13:22:42;;;;;;;5.13;1.27;;;;;;;;;;5084521;28;20059;-70
2022/04/06 13:25:10;;;;;;;3.60;0.90;;;;;;;;;;5086152;28;20106;-70
2022/04/06 13:27:36;;;;;;;3.95;1.10;;;;;;;;;;5088818;28;20926;-70
2022/04/06 13:30:02;;;;;;;4.10;1.05;;;;;;;;;;5069626;28;20040;-70
2022/04/06 13:32:28;;;;;;;2.88;0.82;;;;;;;;;;5082270;28;20659;-70
2022/04/06 13:34:54;;;;;;;4.40;0.98;;;;;;;;;;5087387;28;20036;-70
2022/04/06 13:37:20;;;;;;;5.50;0.95;;;;;;;;;;5085388;28;20028;-70
2022/04/06 13:39:47;;;;;;;3.13;1.08;;;;;;;;;;5088752;28;20044;-70
2022/04/06 13:42:13;;;;;;;5.72;1.30;;;;;;;;;;5090593;28;20046;-70
2022/04/06 13:44:39;;;;;;;6.15;0.93;;;;;;;;;;5083941;28;20043;-71
2022/04/06 13:47:05;;;;;;;4.60;1.25;;;;;;;;;;5082671;28;20036;-70
2022/04/06 13:49:32;;;;;;;8.65;0.93;;;;;;;;;;5082314;28;20028;-70
2022/04/06 13:52:00;;;;;;;4.90;1.15;;;;;;;;;;5081562;28;20028;-70
2022/04/06 13:54:27;;;;;;;2.75;1.00;;;;;;;;;;5084335;28;20038;-70
2022/04/06 13:56:53;;;;;;;4.13;0.90;;;;;;;;;;5088900;28;20389;-70
2022/04/06 13:59:20;;;;;;;3.05;0.80;;;;;;;;;;5087190;28;20142;-70
2022/04/06 14:01:46;;;;;;;7.03;0.80;;;;;;;;;;5085179;28;20039;-70
2022/04/06 14:04:13;;;;;;;3.22;1.35;;;;;;;;;;5085525;28;20177;-70
2022/04/06 14:06:39;;;;;;;4.88;1.00;;;;;;;;;;5080920;28;20039;-70
2022/04/06 14:09:06;;;;;;;4.68;1.02;;;;;;;;;;5082686;28;20032;-70
2022/04/06 14:11:35;;;;;;;6.95;1.13;;;;;;;;;;5085512;28;20412;-70
2022/04/06 14:14:01;;;;;;;5.32;0.93;;;;;;;;;;5082969;28;20077;-70
2022/04/06 14:16:27;;;;;;;3.08;1.02;;;;;;;;;;5080969;28;20510;-70
2022/04/06 14:18:55;;;;;;;3.35;1.13;;;;;;;;;;5087080;28;20036;-70
2022/04/06 14:21:23;;;;;;;3.55;1.13;;;;;;;;;;5078195;28;20650;-70
2022/04/06 14:23:49;;;;;;;6.40;1.10;;;;;;;;;;5084136;28;20044;-70
2022/04/06 14:26:15;;;;;;;5.13;1.08;;;;;;;;;;5081570;28;20052;-70
2022/04/06 14:28:41;;;;;;;4.60;1.00;;;;;;;;;;5083983;28;20028;-70
2022/04/06 14:31:08;;;;;;;4.35;0.88;;;;;;;;;;5081690;28;20039;-70
2022/04/06 14:33:35;;;;;;;4.97;1.13;;;;;;;;;;5083243;28;20055;-70
2022/04/06 14:36:02;;;;;;;5.32;1.15;;;;;;;;;;5085208;28;20028;-70
2022/04/06 14:38:28;;;;;;;5.10;0.95;;;;;;;;;;5084889;28;20508;-70
2022/04/06 14:40:54;;;;;;;3.20;0.80;;;;;;;;;;5081072;28;20072;-71
2022/04/06 14:43:20;;;;;;;8.27;0.90;;;;;;;;;;5084653;28;20031;-70
2022/04/06 14:45:46;;;;;;;5.40;1.00;;;;;;;;;;5081680;28;20122;-70
2022/04/06 14:48:14;;;;;;;4.22;0.70;;;;;;;;;;5086402;28;20032;-70